Time;durP1;ratioP1;P1;durP2;ratioP2;P2;SDS_P1;SDS_P2;PMS_P1;PMS_P2;Temp;Humidity;BMP_temperature;BMP_pressure;BME280_temperature;BME280_humidity;BME280_pressure;Samples;Min_cycle;Max_cycle;Signal;HPM_P1;HPM_P2
2024/03/10 00:00:43;;;;;;;;;;;;;;;19.94;30.77;101166.58;102431;1298;61407;-83
2024/03/10 00:03:09;;;;;;;;;;;;;;;19.93;30.66;101166.77;102487;1303;61403;-84
2024/03/10 00:05:35;;;;;;;;;;;;;;;19.93;30.83;101166.08;102406;1297;61470;-84
2024/03/10 00:08:01;;;;;;;;;;;;;;;19.93;30.75;101163.41;102547;1298;61399;-83
2024/03/10 00:10:28;;;;;;;;;;;;;;;19.92;30.76;101161.29;102628;1298;61871;-84
2024/03/10 00:12:56;;;;;;;;;;;;;;;19.93;30.71;101159.30;102544;1297;73139;-84
2024/03/10 00:15:22;;;;;;;;;;;;;;;19.92;30.69;101159.67;102445;1298;61396;-84
2024/03/10 00:17:48;;;;;;;;;;;;;;;19.92;30.75;101151.30;102473;1298;61437;-84
2024/03/10 00:20:14;;;;;;;;;;;;;;;19.92;30.74;101148.80;102417;1298;61404;-83
2024/03/10 00:22:40;;;;;;;;;;;;;;;19.92;30.78;101146.87;102403;1303;61424;-83
2024/03/10 00:25:06;;;;;;;;;;;;;;;19.92;30.71;101150.27;102441;1303;61415;-83
2024/03/10 00:27:36;;;;;;;;;;;;;;;19.92;30.84;101148.66;102531;1297;61320;-84
2024/03/10 00:30:04;;;;;;;;;;;;;;;19.91;30.67;101148.00;102427;1299;61401;-84
2024/03/10 00:32:31;;;;;;;;;;;;;;;19.91;30.69;101147.44;102425;1302;62018;-84
2024/03/10 00:34:57;;;;;;;;;;;;;;;19.90;30.69;101145.88;102446;1297;72334;-84
2024/03/10 00:37:27;;;;;;;;;;;;;;;19.90;30.62;101146.77;102395;1302;74096;-85
2024/03/10 00:39:54;;;;;;;;;;;;;;;19.90;30.59;101141.96;102522;1303;61328;-83
2024/03/10 00:42:23;;;;;;;;;;;;;;;19.90;30.72;101138.70;102447;1301;61482;-84
2024/03/10 00:44:50;;;;;;;;;;;;;;;19.89;30.59;101132.88;102461;1303;73462;-83
2024/03/10 00:47:16;;;;;;;;;;;;;;;19.89;30.64;101126.47;102517;1298;74073;-83
2024/03/10 00:49:42;;;;;;;;;;;;;;;19.89;30.69;101122.39;102362;1299;61436;-84
2024/03/10 00:52:09;;;;;;;;;;;;;;;19.89;30.76;101113.84;102405;1299;61459;-84
2024/03/10 00:54:36;;;;;;;;;;;;;;;19.88;30.74;101110.27;102457;1297;73558;-84
2024/03/10 00:57:02;;;;;;;;;;;;;;;19.88;30.66;101111.54;102350;1303;61315;-84
2024/03/10 00:59:28;;;;;;;;;;;;;;;19.87;30.65;101108.00;102607;1297;62020;-82
2024/03/10 01:01:57;;;;;;;;;;;;;;;19.87;30.69;101109.63;102437;1297;61317;-84
2024/03/10 01:04:23;;;;;;;;;;;;;;;19.87;30.66;101110.88;102472;1298;72506;-83
2024/03/10 01:06:48;;;;;;;;;;;;;;;19.87;30.57;101111.25;102427;1297;61385;-84
2024/03/10 01:09:18;;;;;;;;;;;;;;;19.87;30.72;101105.17;102471;1297;62615;-84
2024/03/10 01:11:47;;;;;;;;;;;;;;;19.87;30.58;101102.52;102423;1300;62022;-83
2024/03/10 01:14:13;;;;;;;;;;;;;;;19.86;30.72;101103.08;102391;1297;61585;-82
2024/03/10 01:16:40;;;;;;;;;;;;;;;19.86;30.65;101102.38;102404;1297;61437;-84
2024/03/10 01:19:09;;;;;;;;;;;;;;;19.86;30.52;101107.19;102475;1297;61762;-84
2024/03/10 01:21:35;;;;;;;;;;;;;;;19.86;30.50;101110.62;102403;1299;61411;-83
2024/03/10 01:24:01;;;;;;;;;;;;;;;19.86;30.62;101112.05;102429;1298;61427;-84
2024/03/10 01:26:41;;;;;;;;;;;;;;;;;;;;;
2024/03/10 01:29:15;;;;;;;;;;;;;;;19.85;30.51;101113.34;102556;1297;61241;-83
2024/03/10 01:31:42;;;;;;;;;;;;;;;19.85;30.66;101112.28;102451;1297;61372;-84
2024/03/10 01:34:09;;;;;;;;;;;;;;;19.85;30.54;101113.18;102505;1301;73532;-84
2024/03/10 01:36:36;;;;;;;;;;;;;;;19.85;30.53;101109.77;102541;1299;74581;-83
2024/03/10 01:39:01;;;;;;;;;;;;;;;19.84;30.53;101108.91;102519;1306;61528;-83
2024/03/10 01:41:27;;;;;;;;;;;;;;;19.84;30.47;101108.56;102319;1297;61409;-83
2024/03/10 01:43:53;;;;;;;;;;;;;;;19.84;30.60;101105.17;102383;1297;62670;-83
2024/03/10 01:46:18;;;;;;;;;;;;;;;19.84;30.52;101106.79;102626;1302;61399;-83
2024/03/10 01:48:46;;;;;;;;;;;;;;;19.84;30.50;101104.13;102489;1297;61443;-83
2024/03/10 01:51:13;;;;;;;;;;;;;;;19.83;30.53;101103.63;102512;1301;61402;-84
2024/03/10 01:53:39;;;;;;;;;;;;;;;19.83;30.58;101104.73;102497;1297;61450;-84
2024/03/10 01:56:05;;;;;;;;;;;;;;;19.83;30.61;101105.41;102488;1303;62244;-84
2024/03/10 01:58:32;;;;;;;;;;;;;;;19.83;30.43;101107.23;102258;1297;63163;-83
2024/03/10 02:01:03;;;;;;;;;;;;;;;19.82;30.44;101105.10;102392;1298;61412;-84
2024/03/10 02:03:29;;;;;;;;;;;;;;;19.82;30.57;101105.30;102473;1303;61508;-84
2024/03/10 02:05:55;;;;;;;;;;;;;;;19.83;30.48;101107.08;102450;1303;62459;-83
2024/03/10 02:08:23;;;;;;;;;;;;;;;19.82;30.44;101111.38;102357;1303;61372;-83
2024/03/10 02:10:49;;;;;;;;;;;;;;;19.81;30.50;101111.41;101961;1303;660217;-84
2024/03/10 02:13:17;;;;;;;;;;;;;;;19.81;30.55;101110.18;102412;1297;61402;-84
2024/03/10 02:15:42;;;;;;;;;;;;;;;19.81;30.38;101108.58;102515;1297;72427;-83
2024/03/10 02:18:08;;;;;;;;;;;;;;;19.81;30.45;101103.41;102515;1298;61416;-84
2024/03/10 02:20:37;;;;;;;;;;;;;;;19.81;30.50;101102.17;102593;1297;61408;-84
2024/03/10 02:23:03;;;;;;;;;;;;;;;19.81;30.58;101103.60;102393;1297;61737;-84
2024/03/10 02:25:48;;;;;;;;;;;;;;;;;;;;;
2024/03/10 02:28:36;;;;;;;;;;;;;;;19.80;30.48;101108.27;102441;1298;75556;-83
2024/03/10 02:47:49;;;;;;;;;;;;;;;19.79;30.45;101101.35;102238;1306;71425;-82
2024/03/10 02:50:14;;;;;;;;;;;;;;;19.79;30.44;101097.29;102487;1298;62049;-82
2024/03/10 02:52:40;;;;;;;;;;;;;;;19.78;30.45;101098.19;102417;1298;61443;-83
2024/03/10 02:55:06;;;;;;;;;;;;;;;19.79;30.41;101098.55;102567;1297;61505;-83
2024/03/10 02:57:33;;;;;;;;;;;;;;;19.78;30.49;101098.71;102401;1297;61500;-84
2024/03/10 03:00:00;;;;;;;;;;;;;;;19.78;30.39;101097.14;102393;1303;62020;-84
2024/03/10 03:02:29;;;;;;;;;;;;;;;19.78;30.39;101093.59;102423;1303;61329;-83
2024/03/10 03:05:06;;;;;;;;;;;;;;;19.77;30.38;101089.66;102483;1298;61325;-84
2024/03/10 03:07:33;;;;;;;;;;;;;;;19.77;30.49;101087.52;102491;1298;73685;-84
2024/03/10 03:09:59;;;;;;;;;;;;;;;19.76;30.44;101085.06;102507;1297;74490;-84
2024/03/10 03:12:25;;;;;;;;;;;;;;;19.76;30.42;101084.89;102459;1302;61414;-84
2024/03/10 03:14:51;;;;;;;;;;;;;;;19.76;30.36;101086.15;102461;1298;61348;-84
2024/03/10 03:17:17;;;;;;;;;;;;;;;19.76;30.55;101087.06;102412;1298;61966;-84
2024/03/10 03:19:43;;;;;;;;;;;;;;;19.75;30.42;101086.55;102555;1298;61438;-84
2024/03/10 03:22:12;;;;;;;;;;;;;;;19.75;30.56;101087.80;102443;1297;61395;-83
2024/03/10 03:24:38;;;;;;;;;;;;;;;19.75;30.41;101091.39;102518;1297;61405;-84
2024/03/10 03:27:04;;;;;;;;;;;;;;;19.75;30.35;101095.30;102399;1297;61391;-83
2024/03/10 03:29:33;;;;;;;;;;;;;;;19.75;30.27;101090.89;102526;1296;61374;-83
2024/03/10 03:31:59;;;;;;;;;;;;;;;19.75;30.34;101090.17;102532;1297;61302;-85
2024/03/10 03:34:34;;;;;;;;;;;;;;;19.74;30.46;101099.30;102456;1297;61477;-84
2024/03/10 03:37:10;;;;;;;;;;;;;;;19.74;30.31;101098.96;102546;1302;73535;-84
2024/03/10 03:39:37;;;;;;;;;;;;;;;19.74;30.25;101102.37;102562;1298;74555;-84
2024/03/10 03:42:03;;;;;;;;;;;;;;;19.74;30.31;101106.11;102464;1297;61479;-83
2024/03/10 03:44:28;;;;;;;;;;;;;;;19.74;30.17;101105.05;102545;1297;62278;-84
2024/03/10 03:46:54;;;;;;;;;;;;;;;19.74;30.29;101103.10;102529;1297;61427;-85
2024/03/10 03:49:19;;;;;;;;;;;;;;;19.73;30.26;101099.02;102373;1302;61379;-84
2024/03/10 03:51:48;;;;;;;;;;;;;;;19.73;30.30;101097.94;102559;1300;61403;-83
2024/03/10 03:54:17;;;;;;;;;;;;;;;19.73;30.31;101100.99;102488;1297;61464;-84
2024/03/10 03:56:42;;;;;;;;;;;;;;;19.72;30.24;101105.70;102290;1298;61498;-83
2024/03/10 03:59:08;;;;;;;;;;;;;;;19.72;30.19;101103.89;102488;1297;62004;-84
2024/03/10 04:01:37;;;;;;;;;;;;;;;19.72;30.25;101105.33;102474;1303;61430;-83
2024/03/10 04:04:03;;;;;;;;;;;;;;;19.72;30.45;101103.05;102586;1297;61533;-83
2024/03/10 04:06:28;;;;;;;;;;;;;;;19.72;30.31;101096.80;102416;1303;61370;-84
2024/03/10 04:08:54;;;;;;;;;;;;;;;19.71;30.37;101097.19;102518;1298;61430;-83
2024/03/10 04:11:21;;;;;;;;;;;;;;;19.71;30.39;101095.58;102523;1297;61414;-84
2024/03/10 04:13:48;;;;;;;;;;;;;;;19.71;30.24;101092.19;102570;1297;61881;-84
2024/03/10 04:16:13;;;;;;;;;;;;;;;19.71;30.28;101090.95;102432;1297;61426;-84
2024/03/10 04:18:40;;;;;;;;;;;;;;;19.71;30.35;101084.55;102459;1303;61287;-84
2024/03/10 04:21:05;;;;;;;;;;;;;;;19.70;30.26;101082.95;102491;1297;61492;-84
2024/03/10 04:23:32;;;;;;;;;;;;;;;19.70;30.31;101083.30;102545;1297;61334;-84
2024/03/10 04:26:01;;;;;;;;;;;;;;;19.70;30.34;101088.65;102536;1298;61403;-84
2024/03/10 04:28:27;;;;;;;;;;;;;;;19.70;30.36;101092.98;102457;1297;61404;-84
2024/03/10 04:30:55;;;;;;;;;;;;;;;19.70;30.31;101092.10;102474;1297;61406;-84
2024/03/10 04:33:20;;;;;;;;;;;;;;;19.69;30.36;101091.58;102513;1296;75750;-84
2024/03/10 04:35:47;;;;;;;;;;;;;;;19.69;30.30;101088.92;102428;1300;61351;-84
2024/03/10 04:38:12;;;;;;;;;;;;;;;19.69;30.34;101094.11;102397;1297;61409;-83
2024/03/10 04:40:38;;;;;;;;;;;;;;;19.69;30.28;101096.27;102444;1303;61379;-84
2024/03/10 04:43:04;;;;;;;;;;;;;;;19.69;30.17;101101.63;102486;1297;62688;-84
2024/03/10 04:45:33;;;;;;;;;;;;;;;19.69;30.37;101106.09;102457;1297;61453;-84
2024/03/10 04:47:59;;;;;;;;;;;;;;;19.68;30.26;101107.19;102390;1297;61469;-84
2024/03/10 04:50:24;;;;;;;;;;;;;;;19.68;30.22;101106.48;102403;1298;61495;-84
2024/03/10 04:52:50;;;;;;;;;;;;;;;19.68;30.23;101104.71;102398;1299;62355;-85
2024/03/10 04:55:16;;;;;;;;;;;;;;;19.68;30.30;101108.83;102483;1297;61846;-84
2024/03/10 04:57:41;;;;;;;;;;;;;;;19.67;30.26;101104.25;102415;1297;61484;-84
2024/03/10 05:00:10;;;;;;;;;;;;;;;19.67;30.23;101102.96;102442;1297;62006;-84
2024/03/10 05:02:36;;;;;;;;;;;;;;;19.67;30.21;101104.57;102503;1302;73468;-84
2024/03/10 05:05:10;;;;;;;;;;;;;;;19.67;30.18;101102.25;102458;1297;75544;-84
2024/03/10 05:07:36;;;;;;;;;;;;;;;19.67;30.12;101098.87;102512;1300;61761;-84
2024/03/10 05:10:03;;;;;;;;;;;;;;;19.67;30.15;101096.75;102483;1297;61328;-84
2024/03/10 05:12:29;;;;;;;;;;;;;;;19.66;30.13;101099.44;102495;1297;61762;-84
2024/03/10 05:14:55;;;;;;;;;;;;;;;19.66;30.30;101105.14;102518;1298;61418;-83
2024/03/10 05:17:21;;;;;;;;;;;;;;;19.66;30.22;101107.48;102486;1297;61391;-84
2024/03/10 05:19:46;;;;;;;;;;;;;;;19.66;30.08;101111.95;102485;1296;61376;-84
2024/03/10 05:22:12;;;;;;;;;;;;;;;19.66;30.07;101115.71;102556;1297;61386;-84
2024/03/10 05:24:45;;;;;;;;;;;;;;;19.66;30.07;101113.06;102427;1297;72356;-84
2024/03/10 05:27:10;;;;;;;;;;;;;;;19.66;30.23;101117.71;102482;1298;75612;-85
2024/03/10 05:29:39;;;;;;;;;;;;;;;19.66;30.10;101119.31;102534;1297;61347;-84
2024/03/10 05:32:05;;;;;;;;;;;;;;;19.65;30.10;101120.95;102527;1297;61830;-84
2024/03/10 05:34:39;;;;;;;;;;;;;;;19.65;30.22;101119.54;102566;1296;72368;-85
2024/03/10 05:37:05;;;;;;;;;;;;;;;19.65;30.10;101119.01;102386;1297;62069;-83
2024/03/10 05:39:32;;;;;;;;;;;;;;;19.64;30.14;101121.00;102255;1298;61498;-85
2024/03/10 05:41:59;;;;;;;;;;;;;;;19.64;30.22;101123.67;102490;1297;61390;-85
2024/03/10 05:44:28;;;;;;;;;;;;;;;19.64;30.19;101121.53;102410;1297;61465;-84
2024/03/10 05:46:54;;;;;;;;;;;;;;;19.64;30.20;101118.14;102416;1297;74481;-84
2024/03/10 05:49:22;;;;;;;;;;;;;;;19.63;30.16;101114.10;102417;1303;61387;-84
2024/03/10 05:51:48;;;;;;;;;;;;;;;19.63;30.10;101121.95;102258;1299;61913;-84
2024/03/10 05:54:18;;;;;;;;;;;;;;;19.63;30.09;101126.27;102300;1299;73588;-83
2024/03/10 05:56:44;;;;;;;;;;;;;;;19.62;30.22;101126.83;102535;1300;75501;-84
2024/03/10 05:59:13;;;;;;;;;;;;;;;19.63;30.05;101128.05;102487;1299;61389;-83
2024/03/10 06:01:41;;;;;;;;;;;;;;;19.62;30.15;101130.76;102454;1301;61569;-84
2024/03/10 06:04:06;;;;;;;;;;;;;;;19.62;30.14;101133.47;102305;1300;61292;-84
2024/03/10 06:06:32;;;;;;;;;;;;;;;19.63;30.06;101137.89;102411;1300;62209;-84
2024/03/10 06:09:01;;;;;;;;;;;;;;;19.61;30.23;101142.05;102395;1300;61562;-84
2024/03/10 06:11:32;;;;;;;;;;;;;;;19.62;30.05;101140.96;102466;1300;61523;-85
2024/03/10 06:13:57;;;;;;;;;;;;;;;19.61;30.05;101142.07;102363;1305;71460;-84
2024/03/10 06:16:23;;;;;;;;;;;;;;;19.61;30.11;101137.26;102342;1301;61936;-84
2024/03/10 06:27:24;;;;;;;;;;;;;;;19.60;30.07;101128.35;101694;1306;73586;-83
2024/03/10 06:29:53;;;;;;;;;;;;;;;19.60;30.00;101126.56;101981;1306;61438;-83
2024/03/10 06:32:19;;;;;;;;;;;;;;;19.61;30.15;101130.29;101664;1306;61296;-84
2024/03/10 06:34:48;;;;;;;;;;;;;;;19.61;30.00;101134.04;101796;1306;72469;-84
2024/03/10 06:37:20;;;;;;;;;;;;;;;19.61;30.15;101138.34;101722;1306;75593;-84
2024/03/10 06:39:46;;;;;;;;;;;;;;;19.60;30.05;101139.08;101892;1306;61371;-84
2024/03/10 06:42:12;;;;;;;;;;;;;;;19.61;30.16;101144.41;102192;1306;61422;-84
2024/03/10 06:44:42;;;;;;;;;;;;;;;19.60;30.15;101146.04;101992;1311;72557;-85
2024/03/10 06:47:09;;;;;;;;;;;;;;;19.60;30.09;101145.69;101754;1306;74996;-83
2024/03/10 06:49:34;;;;;;;;;;;;;;;19.60;30.06;101144.26;101748;1308;62514;-83
2024/03/10 06:52:07;;;;;;;;;;;;;;;19.60;30.03;101146.20;101766;1306;61313;-84
2024/03/10 06:54:34;;;;;;;;;;;;;;;19.60;29.95;101146.73;101728;1306;61684;-84
2024/03/10 06:57:00;;;;;;;;;;;;;;;19.61;30.04;101146.02;101838;1310;61497;-84
2024/03/10 06:59:26;;;;;;;;;;;;;;;19.60;29.99;101142.27;102331;1296;61426;-83
2024/03/10 07:01:55;;;;;;;;;;;;;;;19.60;30.00;101143.17;102435;1297;61422;-84
2024/03/10 07:04:23;;;;;;;;;;;;;;;19.60;30.17;101143.70;102654;1297;73334;-84
2024/03/10 07:06:50;;;;;;;;;;;;;;;19.60;30.09;101145.85;102553;1301;74453;-83
2024/03/10 07:09:21;;;;;;;;;;;;;;;19.60;30.02;101146.92;102593;1297;61379;-84
2024/03/10 07:11:47;;;;;;;;;;;;;;;19.61;30.07;101156.02;102482;1297;61421;-85
2024/03/10 07:14:15;;;;;;;;;;;;;;;19.61;29.95;101162.80;102526;1301;61440;-84
2024/03/10 07:16:47;;;;;;;;;;;;;;;19.61;30.01;101162.77;102521;1300;74572;-83
2024/03/10 07:19:16;;;;;;;;;;;;;;;19.61;29.98;101157.42;102464;1298;61381;-83
2024/03/10 07:21:43;;;;;;;;;;;;;;;19.62;29.89;101156.86;102646;1297;61977;-84
2024/03/10 07:24:09;;;;;;;;;;;;;;;19.62;29.97;101155.45;102498;1297;61311;-83
2024/03/10 07:26:34;;;;;;;;;;;;;;;19.61;30.01;101147.94;102587;1297;62983;-84
2024/03/10 07:29:00;;;;;;;;;;;;;;;19.62;29.98;101150.97;102402;1297;61809;-84
2024/03/10 07:31:26;;;;;;;;;;;;;;;19.62;30.18;101149.53;102575;1297;61390;-83
2024/03/10 07:33:53;;;;;;;;;;;;;;;19.62;30.17;101147.92;102627;1297;61607;-83
2024/03/10 07:36:19;;;;;;;;;;;;;;;19.62;30.02;101145.25;102491;1297;61544;-84
2024/03/10 07:38:54;;;;;;;;;;;;;;;19.62;29.95;101143.13;102401;1297;61402;-83
2024/03/10 07:41:20;;;;;;;;;;;;;;;19.61;30.09;101139.73;102533;1297;61396;-84
2024/03/10 07:43:47;;;;;;;;;;;;;;;19.61;29.93;101140.30;102573;1297;61408;-84
2024/03/10 07:46:13;;;;;;;;;;;;;;;19.61;29.97;101139.41;102550;1298;74042;-84
2024/03/10 07:48:39;;;;;;;;;;;;;;;19.62;29.91;101135.27;102541;1297;61319;-84
2024/03/10 07:51:05;;;;;;;;;;;;;;;19.61;30.08;101135.45;102416;1297;61502;-84
2024/03/10 07:53:30;;;;;;;;;;;;;;;19.62;30.05;101141.33;102427;1298;62726;-84
2024/03/10 07:55:59;;;;;;;;;;;;;;;19.62;29.97;101145.08;102608;1297;61258;-83
2024/03/10 07:58:26;;;;;;;;;;;;;;;19.62;29.90;101147.72;102541;1299;61397;-82
2024/03/10 08:00:52;;;;;;;;;;;;;;;19.63;29.93;101144.85;102392;1297;61367;-84
2024/03/10 08:03:19;;;;;;;;;;;;;;;19.62;29.96;101146.81;102406;1298;61389;-84
2024/03/10 08:05:46;;;;;;;;;;;;;;;19.63;29.88;101147.36;102351;1298;74504;-84
2024/03/10 08:08:12;;;;;;;;;;;;;;;19.63;29.95;101150.00;102520;1298;62311;-84
2024/03/10 08:10:38;;;;;;;;;;;;;;;19.63;30.07;101148.60;102613;1298;61395;-83
2024/03/10 08:13:07;;;;;;;;;;;;;;;19.63;29.97;101144.48;102381;1297;61425;-83
2024/03/10 08:15:33;;;;;;;;;;;;;;;19.63;30.11;101147.14;102400;1297;75891;-83
2024/03/10 08:18:01;;;;;;;;;;;;;;;19.62;29.95;101142.87;102626;1301;62069;-83
2024/03/10 08:20:28;;;;;;;;;;;;;;;19.63;30.05;101143.39;102351;1302;61391;-84
2024/03/10 08:22:56;;;;;;;;;;;;;;;19.63;30.02;101136.41;102487;1297;61427;-84
2024/03/10 08:25:22;;;;;;;;;;;;;;;19.64;29.89;101140.14;102493;1297;74893;-83
2024/03/10 08:27:53;;;;;;;;;;;;;;;19.64;29.98;101141.38;102654;1297;61397;-83
2024/03/10 08:30:20;;;;;;;;;;;;;;;19.64;30.15;101139.05;102725;1297;61250;-82
2024/03/10 08:32:48;;;;;;;;;;;;;;;19.64;30.02;101134.41;102375;1298;61485;-84
2024/03/10 08:35:14;;;;;;;;;;;;;;;19.64;30.02;101129.58;102404;1303;74241;-84
2024/03/10 08:37:41;;;;;;;;;;;;;;;19.64;30.00;101129.02;102560;1296;61745;-84
2024/03/10 08:40:10;;;;;;;;;;;;;;;19.64;29.97;101129.75;102699;1297;61761;-84
2024/03/10 08:42:37;;;;;;;;;;;;;;;19.64;30.00;101131.53;102523;1297;72409;-84
2024/03/10 08:45:03;;;;;;;;;;;;;;;19.64;29.97;101127.96;102455;1299;74718;-83
2024/03/10 08:47:32;;;;;;;;;;;;;;;19.65;29.89;101124.88;102551;1299;61523;-82
2024/03/10 08:49:59;;;;;;;;;;;;;;;19.65;29.99;101119.18;103072;1297;61392;-82
2024/03/10 08:52:25;;;;;;;;;;;;;;;19.65;29.89;101119.52;102845;1297;73400;-82
2024/03/10 08:54:51;;;;;;;;;;;;;;;19.65;30.10;101114.52;102795;1297;61307;-82
2024/03/10 08:57:17;;;;;;;;;;;;;;;19.66;30.11;101112.86;102963;1297;61348;-82
2024/03/10 08:59:42;;;;;;;;;;;;;;;19.67;30.01;101108.89;102747;1297;62063;-83
2024/03/10 09:02:10;;;;;;;;;;;;;;;19.67;29.98;101105.63;102541;1303;61342;-83
2024/03/10 09:04:36;;;;;;;;;;;;;;;19.68;30.04;101103.47;102578;1303;61353;-83
2024/03/10 09:07:01;;;;;;;;;;;;;;;19.68;29.96;101105.73;102616;1300;61354;-84
2024/03/10 09:09:27;;;;;;;;;;;;;;;19.69;30.11;101100.54;102402;1303;62379;-83
2024/03/10 09:11:53;;;;;;;;;;;;;;;19.70;30.00;101099.94;102476;1297;61501;-83
2024/03/10 09:14:19;;;;;;;;;;;;;;;19.71;30.03;101100.05;102490;1303;61388;-84
2024/03/10 09:16:44;;;;;;;;;;;;;;;19.71;29.99;101093.25;102404;1302;62002;-84
2024/03/10 09:19:10;;;;;;;;;;;;;;;19.72;29.99;101099.96;102586;1297;61392;-85
2024/03/10 09:21:37;;;;;;;;;;;;;;;19.73;29.96;101097.44;102399;1303;61481;-84
2024/03/10 09:24:06;;;;;;;;;;;;;;;19.73;29.98;101093.14;102413;1297;61496;-84
2024/03/10 09:26:32;;;;;;;;;;;;;;;19.74;29.99;101094.71;102621;1303;61383;-84
2024/03/10 09:28:57;;;;;;;;;;;;;;;19.74;29.90;101089.52;102454;1299;61434;-84
2024/03/10 09:31:23;;;;;;;;;;;;;;;19.74;30.07;101084.14;102567;1297;61851;-83
2024/03/10 09:33:51;;;;;;;;;;;;;;;19.74;30.00;101080.91;102412;1303;61363;-84
2024/03/10 09:36:20;;;;;;;;;;;;;;;19.75;29.98;101085.50;102405;1300;61341;-83
2024/03/10 09:38:45;;;;;;;;;;;;;;;19.76;30.09;101085.46;102505;1297;61461;-83
2024/03/10 09:41:12;;;;;;;;;;;;;;;19.76;30.12;101087.40;102473;1299;61428;-82
2024/03/10 09:43:40;;;;;;;;;;;;;;;19.77;30.05;101082.72;102493;1300;71906;-85
2024/03/10 09:46:13;;;;;;;;;;;;;;;19.77;30.10;101078.96;102356;1302;74689;-83
2024/03/10 09:48:42;;;;;;;;;;;;;;;19.78;30.19;101076.79;102399;1298;62153;-83
2024/03/10 09:51:11;;;;;;;;;;;;;;;19.78;30.10;101075.71;102473;1297;61418;-83
2024/03/10 09:53:40;;;;;;;;;;;;;;;19.78;30.12;101071.58;102388;1298;72518;-84
2024/03/10 09:56:07;;;;;;;;;;;;;;;19.79;30.18;101070.80;102481;1302;61510;-83
2024/03/10 09:58:50;;;;;;;;;;;;;;;19.81;30.26;101070.74;102479;1300;61376;-83
2024/03/10 10:01:18;;;;;;;;;;;;;;;19.81;30.23;101068.42;102606;1297;61418;-83
2024/03/10 10:03:50;;;;;;;;;;;;;;;19.82;30.26;101067.11;102974;1302;73586;-82
2024/03/10 10:06:16;;;;;;;;;;;;;;;19.82;30.23;101060.11;102791;1303;75488;-82
2024/03/10 10:08:45;;;;;;;;;;;;;;;19.83;30.37;101060.78;102820;1297;61335;-82
2024/03/10 10:11:13;;;;;;;;;;;;;;;19.84;30.35;101058.95;102640;1297;61487;-84
2024/03/10 10:13:42;;;;;;;;;;;;;;;19.85;30.25;101063.00;102734;1297;73690;-82
2024/03/10 10:16:08;;;;;;;;;;;;;;;19.85;30.29;101057.62;102543;1297;74409;-84
2024/03/10 10:18:36;;;;;;;;;;;;;;;19.86;30.37;101058.64;102488;1297;61431;-84
2024/03/10 10:21:06;;;;;;;;;;;;;;;19.87;30.35;101059.84;102354;1298;61386;-84
2024/03/10 10:23:35;;;;;;;;;;;;;;;19.87;30.35;101057.48;102353;1299;72593;-83
2024/03/10 10:26:13;;;;;;;;;;;;;;;19.87;30.33;101057.29;102323;1297;74508;-85
2024/03/10 10:28:41;;;;;;;;;;;;;;;19.88;30.37;101058.68;102561;1302;61343;-83
2024/03/10 10:31:08;;;;;;;;;;;;;;;19.88;30.20;101054.21;102396;1298;61417;-84
2024/03/10 10:33:34;;;;;;;;;;;;;;;19.88;30.24;101054.02;102333;1303;72417;-84
2024/03/10 10:36:05;;;;;;;;;;;;;;;19.88;30.35;101047.61;102591;1301;61463;-84
2024/03/10 10:38:38;;;;;;;;;;;;;;;19.88;30.37;101043.35;102511;1297;61418;-84
2024/03/10 10:41:07;;;;;;;;;;;;;;;19.88;30.35;101037.08;102448;1298;61430;-84
2024/03/10 10:43:39;;;;;;;;;;;;;;;19.87;30.38;101037.65;102498;1298;71874;-83
2024/03/10 10:46:05;;;;;;;;;;;;;;;19.87;30.32;101032.64;102515;1297;74322;-83
2024/03/10 10:48:35;;;;;;;;;;;;;;;19.87;30.32;101028.73;102450;1297;61711;-83
2024/03/10 10:51:10;;;;;;;;;;;;;;;19.87;30.54;101026.23;102607;1297;62491;-83
2024/03/10 10:53:38;;;;;;;;;;;;;;;19.87;30.32;101026.07;102447;1302;61303;-84
2024/03/10 10:56:04;;;;;;;;;;;;;;;19.86;30.37;101020.20;102594;1298;75523;-83
2024/03/10 10:58:31;;;;;;;;;;;;;;;19.86;30.33;101017.70;102487;1297;61397;-83
2024/03/10 11:01:00;;;;;;;;;;;;;;;19.86;30.35;101018.63;102598;1297;61793;-83
2024/03/10 11:03:26;;;;;;;;;;;;;;;19.86;30.49;101015.08;102599;1301;73359;-84
2024/03/10 11:06:08;;;;;;;;;;;;;;;19.86;30.41;101010.78;102614;1297;61448;-83
2024/03/10 11:08:41;;;;;;;;;;;;;;;19.86;30.58;101008.64;102545;1297;61731;-83
2024/03/10 11:11:07;;;;;;;;;;;;;;;19.86;30.44;101012.92;102459;1297;61287;-84
2024/03/10 11:13:36;;;;;;;;;;;;;;;19.86;30.44;101012.04;102363;1297;62107;-84
2024/03/10 11:16:05;;;;;;;;;;;;;;;19.85;30.40;101011.70;102338;1299;74586;-83
2024/03/10 11:18:32;;;;;;;;;;;;;;;19.85;30.51;101009.40;102378;1297;62102;-84
2024/03/10 11:21:00;;;;;;;;;;;;;;;19.85;30.50;101003.33;102379;1297;61259;-84
2024/03/10 11:23:40;;;;;;;;;;;;;;;19.84;30.37;101000.87;102431;1299;72589;-84
2024/03/10 11:26:12;;;;;;;;;;;;;;;19.84;30.41;101001.21;102620;1298;75139;-84
2024/03/10 11:28:51;;;;;;;;;;;;;;;19.85;30.47;100996.73;102464;1298;62546;-83
2024/03/10 11:31:19;;;;;;;;;;;;;;;19.84;30.49;100991.20;102562;1297;61294;-84
2024/03/10 11:33:48;;;;;;;;;;;;;;;19.84;30.47;100993.22;102617;1298;62558;-83
2024/03/10 11:36:14;;;;;;;;;;;;;;;19.84;30.44;100989.98;102544;1298;75702;-84
2024/03/10 11:38:41;;;;;;;;;;;;;;;19.84;30.51;100988.74;102476;1298;61390;-84
2024/03/10 11:41:10;;;;;;;;;;;;;;;19.84;30.49;100986.95;102602;1297;61751;-84
2024/03/10 11:43:57;;;;;;;;;;;;;;;;;;;;;
2024/03/10 11:46:26;;;;;;;;;;;;;;;19.84;30.51;100979.83;102541;1303;74491;-84
2024/03/10 11:48:53;;;;;;;;;;;;;;;19.83;30.67;100977.38;102589;1297;61349;-83
2024/03/10 11:51:20;;;;;;;;;;;;;;;19.83;30.54;100978.80;102466;1298;61346;-83
2024/03/10 11:53:45;;;;;;;;;;;;;;;19.83;30.62;100979.52;102724;1296;61425;-84
2024/03/10 11:56:14;;;;;;;;;;;;;;;19.82;30.47;100978.48;102383;1303;61345;-84
2024/03/10 11:58:41;;;;;;;;;;;;;;;19.83;30.66;100975.25;102444;1297;61402;-84
2024/03/10 12:01:10;;;;;;;;;;;;;;;19.82;30.57;100974.39;102582;1298;61371;-83
2024/03/10 12:03:37;;;;;;;;;;;;;;;19.82;30.53;100971.54;102374;1298;73360;-84
2024/03/10 12:06:05;;;;;;;;;;;;;;;19.81;30.54;100970.34;102438;1300;74172;-84
2024/03/10 12:08:34;;;;;;;;;;;;;;;19.82;30.48;100972.99;102470;1297;61320;-84
2024/03/10 12:11:01;;;;;;;;;;;;;;;19.82;30.59;100968.88;102528;1297;61466;-83
2024/03/10 12:13:27;;;;;;;;;;;;;;;19.81;30.59;100960.55;102390;1298;71431;-84
2024/03/10 12:15:54;;;;;;;;;;;;;;;19.81;30.46;100960.55;102400;1303;61409;-83
2024/03/10 12:18:21;;;;;;;;;;;;;;;19.81;30.55;100958.05;102402;1300;61884;-83
2024/03/10 12:20:49;;;;;;;;;;;;;;;19.80;30.52;100954.14;102384;1303;61723;-84
2024/03/10 12:23:14;;;;;;;;;;;;;;;19.80;30.50;100955.03;102567;1297;73442;-84
2024/03/10 12:25:44;;;;;;;;;;;;;;;19.80;30.66;100950.94;102566;1297;61497;-84
2024/03/10 12:28:13;;;;;;;;;;;;;;;19.80;30.66;100944.34;102395;1297;61433;-85
2024/03/10 12:30:42;;;;;;;;;;;;;;;19.80;30.48;100937.73;102678;1297;61294;-85
2024/03/10 12:33:08;;;;;;;;;;;;;;;19.80;30.76;100930.39;102543;1303;73466;-83
2024/03/10 12:35:37;;;;;;;;;;;;;;;19.80;30.62;100921.27;102366;1298;62982;-83
2024/03/10 12:38:09;;;;;;;;;;;;;;;19.81;30.51;100923.23;102458;1297;61285;-82
2024/03/10 12:40:35;;;;;;;;;;;;;;;19.81;30.48;100919.30;102548;1297;61250;-84
2024/03/10 12:43:05;;;;;;;;;;;;;;;19.81;30.64;100925.36;102573;1297;61302;-84
2024/03/10 12:45:31;;;;;;;;;;;;;;;19.82;30.63;100927.61;102552;1297;74352;-85
2024/03/10 12:47:56;;;;;;;;;;;;;;;19.83;30.69;100927.38;102625;1303;61359;-84
2024/03/10 12:50:25;;;;;;;;;;;;;;;19.83;30.55;100923.06;102460;1297;61331;-84
2024/03/10 12:52:54;;;;;;;;;;;;;;;19.84;30.55;100921.57;102317;1304;71159;-83
2024/03/10 12:55:20;;;;;;;;;;;;;;;19.84;30.66;100919.08;102661;1299;74626;-83
2024/03/10 12:57:46;;;;;;;;;;;;;;;19.84;30.63;100915.48;102606;1296;61422;-83